createdAt,value
2018-09-12T00:03:57.983Z,20.50
2018-09-12T00:06:28.236Z,20.40
2018-09-12T00:08:50.385Z,20.30
2018-09-12T00:11:06.591Z,20.20
2018-09-12T00:15:56.922Z,20.10
2018-09-12T00:18:18.955Z,20.00
2018-09-12T00:20:49.099Z,20.00
2018-09-12T00:23:23.471Z,20.10
2018-09-12T00:25:49.327Z,20.00
2018-09-12T00:32:51.908Z,20.00
2018-09-12T00:35:09.555Z,20.00
2018-09-12T00:37:24.273Z,19.90
2018-09-12T00:42:30.493Z,19.90
2018-09-12T00:44:40.324Z,19.80
2018-09-12T00:46:57.484Z,19.80
2018-09-12T00:49:06.671Z,19.70
2018-09-12T00:51:14.222Z,19.70
2018-09-12T00:54:14.444Z,19.70
2018-09-12T00:56:23.687Z,19.70
2018-09-12T00:58:42.252Z,19.60
2018-09-12T01:01:04.558Z,19.60
2018-09-12T01:03:15.900Z,19.60
2018-09-12T01:05:24.256Z,19.50
2018-09-12T01:07:33.136Z,19.50
2018-09-12T01:11:57.373Z,19.40
2018-09-12T01:14:08.722Z,19.40
2018-09-12T01:16:21.715Z,19.30
2018-09-12T01:21:25.436Z,19.10
2018-09-12T01:24:05.453Z,18.90
2018-09-12T01:29:39.181Z,19.10
2018-09-12T01:31:50.470Z,19.20
2018-09-12T01:34:04.296Z,19.30
2018-09-12T01:36:14.024Z,19.30
2018-09-12T01:38:27.062Z,19.40
2018-09-12T01:40:34.487Z,19.40
2018-09-12T01:42:45.315Z,19.30
2018-09-12T01:44:54.256Z,19.30
2018-09-12T01:47:01.118Z,19.30
2018-09-12T01:49:19.474Z,19.30
2018-09-12T01:51:31.073Z,19.20
2018-09-12T01:53:38.205Z,19.20
2018-09-12T01:55:50.055Z,19.20
2018-09-12T01:58:06.387Z,19.20
2018-09-12T02:00:37.899Z,19.10
2018-09-12T02:02:45.257Z,19.10
2018-09-12T02:07:40.122Z,19.10
2018-09-12T02:13:14.930Z,19.00
2018-09-12T02:15:29.937Z,19.00
2018-09-12T02:18:05.017Z,19.10
2018-09-12T02:20:36.041Z,19.00
2018-09-12T02:22:53.272Z,19.00
2018-09-12T02:25:01.836Z,19.00
2018-09-12T02:27:26.135Z,18.90
2018-09-12T02:29:39.527Z,18.90
2018-09-12T02:31:59.141Z,18.90
2018-09-12T02:34:15.215Z,18.80
2018-09-12T02:36:55.095Z,18.80
2018-09-12T02:41:28.229Z,18.70
2018-09-12T02:43:35.979Z,18.60
2018-09-12T02:45:55.921Z,18.50
2018-09-12T02:48:30.454Z,18.50
2018-09-12T02:50:49.595Z,18.40
2018-09-12T02:53:01.767Z,18.40
2018-09-12T02:55:23.483Z,18.30
2018-09-12T02:57:38.125Z,18.30
2018-09-12T03:02:36.219Z,18.20
2018-09-12T03:05:10.142Z,18.20
2018-09-12T03:07:23.926Z,18.20
2018-09-12T03:09:32.890Z,18.20
2018-09-12T03:11:43.945Z,18.10
2018-09-12T03:13:52.922Z,18.10
2018-09-12T03:16:09.085Z,18.10
2018-09-12T03:18:18.228Z,18.10
2018-09-12T03:20:48.175Z,18.10
2018-09-12T03:22:58.884Z,18.00
2018-09-12T03:25:19.367Z,17.90
2018-09-12T03:27:30.329Z,17.90
2018-09-12T03:29:40.274Z,17.80
2018-09-12T03:34:26.293Z,17.80
2018-09-12T03:36:38.499Z,17.80
2018-09-12T03:38:45.861Z,17.80
2018-09-12T03:41:12.702Z,17.80
2018-09-12T03:43:19.591Z,17.80
2018-09-12T03:48:16.038Z,17.70
2018-09-12T03:50:33.550Z,17.70
2018-09-12T03:52:55.386Z,17.70
2018-09-12T03:55:07.240Z,17.60
2018-09-12T03:57:21.704Z,17.60
2018-09-12T03:59:26.958Z,17.60
2018-09-12T04:01:33.229Z,17.60
2018-09-12T04:03:38.454Z,17.60
2018-09-12T04:05:44.491Z,17.60
2018-09-12T04:07:53.603Z,17.60
2018-09-12T04:10:06.093Z,17.60
2018-09-12T04:12:11.287Z,17.60
2018-09-12T04:14:19.085Z,17.60
2018-09-12T04:16:30.502Z,17.50
2018-09-12T04:18:39.312Z,17.50
2018-09-12T04:21:04.925Z,17.50
2018-09-12T04:23:13.805Z,17.50
2018-09-12T04:25:19.528Z,17.40
2018-09-12T04:27:24.972Z,17.40
2018-09-12T04:29:31.569Z,17.40
2018-09-12T04:31:47.208Z,17.50
2018-09-12T04:33:52.442Z,17.40
2018-09-12T04:35:59.048Z,17.30
2018-09-12T04:38:04.254Z,17.20
2018-09-12T04:40:10.021Z,17.30
2018-09-12T04:42:15.056Z,17.30
2018-09-12T04:44:19.043Z,17.40
2018-09-12T04:46:25.933Z,17.30
2018-09-12T04:48:31.749Z,17.30
2018-09-12T04:50:37.110Z,17.40
2018-09-12T04:52:41.684Z,17.40
2018-09-12T04:54:48.109Z,17.50
2018-09-12T04:56:53.169Z,17.60
2018-09-12T04:58:57.257Z,17.60
2018-09-12T05:01:02.820Z,17.60
2018-09-12T05:03:10.643Z,17.70
2018-09-12T05:05:15.875Z,17.70
2018-09-12T05:07:20.578Z,17.70
2018-09-12T05:09:25.992Z,17.70
2018-09-12T05:11:48.952Z,17.70
2018-09-12T05:13:53.964Z,17.60
2018-09-12T05:16:07.805Z,17.70
2018-09-12T05:18:12.888Z,17.70
2018-09-12T05:20:17.963Z,17.80
2018-09-12T05:22:22.135Z,17.80
2018-09-12T05:24:29.479Z,17.80
2018-09-12T05:26:34.828Z,17.90
2018-09-12T05:28:40.412Z,17.90
2018-09-12T05:30:45.643Z,18.00
2018-09-12T05:32:52.452Z,18.00
2018-09-12T05:35:07.308Z,18.10
2018-09-12T05:37:12.197Z,18.30
2018-09-12T05:39:23.853Z,18.50
2018-09-12T05:41:28.059Z,18.60
2018-09-12T05:43:32.540Z,18.90
2018-09-12T05:48:06.724Z,19.10
2018-09-12T05:50:13.934Z,19.40
2018-09-12T05:52:18.013Z,19.60
2018-09-12T05:54:22.605Z,19.90
2018-09-12T05:56:27.298Z,20.00
2018-09-12T05:58:32.217Z,20.10
2018-09-12T06:00:40.670Z,20.10
2018-09-12T06:02:46.085Z,20.30
2018-09-12T06:04:51.974Z,20.50
2018-09-12T06:06:57.263Z,20.70
2018-09-12T06:09:04.753Z,20.90
2018-09-12T06:11:13.184Z,21.10
2018-09-12T06:13:18.653Z,21.30
2018-09-12T06:15:24.584Z,21.40
2018-09-12T06:17:28.619Z,21.60
2018-09-12T06:19:33.259Z,21.80
2018-09-12T06:21:38.587Z,21.90
2018-09-12T06:23:46.500Z,22.00
2018-09-12T06:25:51.529Z,22.20
2018-09-12T06:27:57.863Z,22.20
2018-09-12T06:30:06.680Z,22.40
2018-09-12T06:32:11.304Z,22.60
2018-09-12T06:34:16.569Z,22.70
2018-09-12T06:36:21.486Z,22.90
2018-09-12T06:38:25.547Z,23.00
2018-09-12T06:40:33.465Z,23.10
2018-09-12T06:42:45.843Z,23.10
2018-09-12T06:44:54.678Z,23.20
2018-09-12T06:46:59.372Z,23.40
2018-09-12T06:49:04.754Z,23.60
2018-09-12T06:51:10.649Z,23.60
2018-09-12T06:53:16.881Z,23.80
2018-09-12T06:55:24.205Z,23.80
2018-09-12T06:57:33.368Z,23.90
2018-09-12T06:59:39.324Z,23.80
2018-09-12T07:02:22.476Z,23.90
2018-09-12T07:04:27.395Z,23.90
2018-09-12T07:06:32.536Z,24.00
2018-09-12T07:08:44.812Z,24.20
2018-09-12T07:10:50.840Z,24.30
2018-09-12T07:13:09.694Z,24.50
2018-09-12T07:15:16.405Z,24.60
2018-09-12T07:17:25.595Z,24.70
2018-09-12T07:19:33.196Z,24.70
2018-09-12T07:21:42.669Z,24.80
2018-09-12T07:23:47.819Z,24.90
2018-09-12T07:25:52.560Z,24.80
2018-09-12T07:27:57.382Z,24.80
2018-09-12T07:30:14.762Z,24.80
2018-09-12T07:32:19.942Z,24.70
2018-09-12T07:34:26.123Z,24.80
2018-09-12T07:36:32.034Z,25.00
2018-09-12T07:38:36.643Z,25.10
2018-09-12T07:40:48.573Z,25.40
2018-09-12T07:42:55.136Z,25.50
2018-09-12T07:45:01.400Z,25.50
2018-09-12T07:47:06.044Z,25.70
2018-09-12T07:49:11.091Z,25.80
2018-09-12T07:51:16.022Z,26.00
2018-09-12T07:53:20.516Z,26.00
2018-09-12T07:55:28.028Z,26.30
2018-09-12T07:57:32.738Z,26.50
2018-09-12T07:59:40.930Z,26.60
2018-09-12T08:01:49.485Z,26.70
2018-09-12T08:03:56.405Z,26.70
2018-09-12T08:06:01.552Z,26.80
2018-09-12T08:08:06.193Z,26.90
2018-09-12T08:10:10.112Z,27.00
2018-09-12T08:12:16.278Z,27.30
2018-09-12T08:14:20.574Z,27.40
2018-09-12T08:16:26.837Z,27.70
2018-09-12T08:18:31.213Z,27.90
2018-09-12T08:20:36.711Z,28.00
2018-09-12T08:22:43.397Z,28.20
2018-09-12T08:24:54.990Z,28.30
2018-09-12T08:27:03.078Z,28.40
2018-09-12T08:29:15.337Z,28.50
2018-09-12T08:31:24.584Z,28.70
2018-09-12T08:33:30.431Z,28.80
2018-09-12T08:35:36.698Z,28.70
2018-09-12T08:37:43.651Z,28.80
2018-09-12T08:39:49.424Z,28.80
2018-09-12T08:41:55.132Z,28.90
2018-09-12T08:44:01.029Z,28.90
2018-09-12T08:46:11.507Z,29.20
2018-09-12T08:48:17.072Z,29.10
2018-09-12T08:50:25.497Z,29.30
2018-09-12T08:52:32.167Z,29.50
2018-09-12T08:54:37.396Z,29.90
2018-09-12T08:56:45.349Z,30.10
2018-09-12T08:58:50.022Z,30.20
2018-09-12T09:00:56.068Z,30.40
2018-09-12T09:03:01.305Z,30.50
2018-09-12T09:05:07.524Z,30.60
2018-09-12T09:07:12.923Z,30.70
2018-09-12T09:09:18.413Z,30.70
2018-09-12T09:11:22.442Z,30.50
2018-09-12T09:13:28.712Z,30.50
2018-09-12T09:15:34.333Z,30.50
2018-09-12T09:17:40.577Z,30.40
2018-09-12T09:19:46.111Z,30.40
2018-09-12T09:21:51.413Z,30.70
2018-09-12T09:23:56.429Z,30.70
2018-09-12T09:26:02.724Z,30.70
2018-09-12T09:28:07.444Z,30.40
2018-09-12T09:34:50.295Z,30.90
2018-09-12T09:36:54.973Z,31.00
2018-09-12T09:39:00.158Z,31.20
2018-09-12T09:41:09.464Z,31.40
2018-09-12T09:43:15.658Z,31.50
2018-09-12T09:45:22.443Z,31.60
2018-09-12T09:47:28.512Z,31.50
2018-09-12T09:49:38.259Z,31.60
2018-09-12T09:51:42.443Z,31.90
2018-09-12T09:53:47.957Z,32.10
2018-09-12T09:55:51.953Z,32.20
2018-09-12T09:57:56.682Z,31.90
2018-09-12T10:00:00.752Z,31.70
2018-09-12T10:02:09.856Z,31.70
2018-09-12T10:04:20.474Z,31.90
2018-09-12T10:07:04.840Z,32.00
2018-09-12T10:09:16.343Z,32.10
2018-09-12T10:11:27.279Z,32.20
2018-09-12T10:13:34.368Z,32.30
2018-09-12T10:15:39.232Z,32.30
2018-09-12T10:17:48.580Z,32.40
2018-09-12T10:19:54.016Z,32.50
2018-09-12T10:22:06.377Z,32.70
2018-09-12T10:24:14.402Z,32.70
2018-09-12T10:26:20.143Z,32.70
2018-09-12T10:28:25.715Z,32.70
2018-09-12T10:30:33.953Z,32.80
2018-09-12T10:32:39.060Z,33.00
2018-09-12T10:34:44.904Z,33.20
2018-09-12T10:36:50.741Z,33.10
2018-09-12T10:38:55.319Z,33.10
2018-09-12T10:41:00.057Z,33.00
2018-09-12T10:43:04.509Z,33.00
2018-09-12T10:45:09.876Z,33.10
2018-09-12T10:47:18.013Z,33.10
2018-09-12T10:49:22.307Z,33.20
2018-09-12T10:51:27.805Z,33.50
2018-09-12T10:53:33.532Z,33.60
2018-09-12T10:55:38.034Z,33.70
2018-09-12T10:57:43.627Z,33.70
2018-09-12T10:59:51.262Z,33.70
2018-09-12T11:01:56.452Z,33.70
2018-09-12T11:04:02.540Z,33.80
2018-09-12T11:06:08.266Z,33.80
2018-09-12T11:08:13.367Z,33.90
2018-09-12T11:10:20.151Z,34.10
2018-09-12T11:12:29.499Z,34.20
2018-09-12T11:14:50.568Z,34.40
2018-09-12T11:16:57.512Z,34.30
2018-09-12T11:19:06.909Z,34.60
2018-09-12T11:21:13.499Z,34.80
2018-09-12T11:23:21.305Z,34.90
2018-09-12T11:25:25.272Z,34.70
2018-09-12T11:27:33.616Z,34.40
2018-09-12T11:29:38.797Z,34.10
2018-09-12T11:31:43.772Z,34.20
2018-09-12T11:33:49.598Z,34.30
2018-09-12T11:35:59.165Z,34.60
2018-09-12T11:38:03.186Z,34.70
2018-09-12T11:40:08.760Z,34.60
2018-09-12T11:42:13.300Z,34.80
2018-09-12T11:44:24.302Z,34.80
2018-09-12T11:46:30.092Z,34.70
2018-09-12T11:48:34.960Z,34.80
2018-09-12T11:50:39.643Z,34.90
2018-09-12T11:52:44.166Z,34.90
2018-09-12T11:54:50.604Z,34.80
2018-09-12T11:56:54.755Z,34.70
2018-09-12T11:58:59.438Z,34.80
2018-09-12T12:01:04.401Z,34.70
2018-09-12T12:03:09.926Z,34.70
2018-09-12T12:05:15.623Z,34.70
2018-09-12T12:07:22.284Z,34.80
2018-09-12T12:09:28.199Z,34.80
2018-09-12T12:11:32.471Z,34.50
2018-09-12T12:13:39.456Z,34.30
2018-09-12T12:15:55.520Z,34.40
2018-09-12T12:18:00.610Z,34.50
2018-09-12T12:20:06.070Z,34.50
2018-09-12T12:22:13.084Z,34.50
2018-09-12T12:24:19.045Z,34.70
2018-09-12T12:26:25.089Z,34.80
2018-09-12T12:28:29.871Z,34.80
2018-09-12T12:30:39.834Z,34.80
2018-09-12T12:32:45.472Z,35.00
2018-09-12T12:34:57.622Z,35.00
2018-09-12T12:37:05.263Z,34.90
2018-09-12T12:39:14.025Z,34.90
2018-09-12T12:41:20.420Z,34.80
2018-09-12T12:43:29.562Z,35.00
2018-09-12T12:45:39.061Z,35.10
2018-09-12T12:47:43.252Z,35.20
2018-09-12T12:49:52.514Z,35.10
2018-09-12T12:51:57.132Z,34.80
2018-09-12T12:54:04.750Z,34.70
2018-09-12T12:56:10.120Z,34.90
2018-09-12T12:58:17.983Z,35.00
2018-09-12T13:00:25.471Z,35.10
2018-09-12T13:02:29.433Z,35.00
2018-09-12T13:04:34.829Z,35.10
2018-09-12T13:06:40.431Z,35.30
2018-09-12T13:08:54.910Z,35.20
2018-09-12T13:11:11.494Z,34.90
2018-09-12T13:13:24.565Z,34.90
2018-09-12T13:15:38.699Z,35.00
2018-09-12T13:17:53.180Z,35.10
2018-09-12T13:20:05.465Z,35.30
2018-09-12T13:22:21.651Z,35.60
2018-09-12T13:24:34.165Z,35.70
2018-09-12T13:26:54.519Z,35.70
2018-09-12T13:29:12.992Z,35.70
2018-09-12T13:31:26.726Z,35.60
2018-09-12T13:33:33.305Z,35.60
2018-09-12T13:35:54.823Z,35.50
2018-09-12T13:38:01.611Z,35.60
2018-09-12T13:40:13.201Z,35.80
2018-09-12T13:42:35.601Z,35.80
2018-09-12T13:44:52.855Z,35.80
2018-09-12T13:47:12.512Z,35.70
2018-09-12T13:49:22.292Z,35.80
2018-09-12T13:51:33.163Z,35.80
2018-09-12T13:53:51.541Z,35.60
2018-09-12T13:55:56.453Z,35.70
2018-09-12T13:58:07.294Z,36.10
2018-09-12T14:00:24.762Z,36.30
2018-09-12T14:02:38.390Z,36.10
2018-09-12T14:04:48.178Z,36.20
2018-09-12T14:06:55.826Z,36.30
2018-09-12T14:09:17.649Z,36.40
2018-09-12T14:11:32.029Z,36.50
2018-09-12T14:13:47.985Z,36.50
2018-09-12T14:18:12.645Z,36.40
2018-09-12T14:20:28.616Z,36.50
2018-09-12T14:22:52.350Z,36.90
2018-09-12T14:25:09.306Z,37.10
2018-09-12T14:29:41.440Z,37.40
2018-09-12T14:31:49.442Z,37.50
2018-09-12T14:33:57.409Z,37.40
2018-09-12T14:36:10.758Z,37.30
2018-09-12T14:38:19.535Z,37.60
2018-09-12T14:40:26.585Z,37.30
2018-09-12T14:42:40.511Z,37.40
2018-09-12T14:44:51.785Z,37.60
2018-09-12T14:46:57.107Z,37.30
2018-09-12T14:49:01.827Z,37.10
2018-09-12T14:51:13.669Z,37.10
2018-09-12T14:53:21.215Z,37.20
2018-09-12T14:55:30.618Z,37.20
2018-09-12T14:57:40.244Z,37.20
2018-09-12T14:59:57.622Z,37.30
2018-09-12T15:02:05.054Z,37.50
2018-09-12T15:04:12.117Z,37.70
2018-09-12T15:06:16.720Z,37.60
2018-09-12T15:08:24.424Z,37.50
2018-09-12T15:10:33.959Z,37.60
2018-09-12T15:12:44.801Z,37.50
2018-09-12T15:14:52.528Z,37.60
2018-09-12T15:17:10.901Z,37.60
2018-09-12T15:19:22.308Z,37.60
2018-09-12T15:21:26.384Z,37.60
2018-09-12T15:23:31.798Z,37.30
2018-09-12T15:25:38.210Z,37.50
2018-09-12T15:29:59.562Z,37.20
2018-09-12T15:32:17.396Z,37.50
2018-09-12T15:34:29.280Z,37.30
2018-09-12T15:36:44.832Z,37.00
2018-09-12T15:38:57.551Z,37.00
2018-09-12T15:41:08.423Z,37.00
2018-09-12T15:43:21.901Z,36.90
2018-09-12T15:45:50.287Z,36.80
2018-09-12T15:48:11.354Z,36.60
2018-09-12T15:50:17.936Z,36.60
2018-09-12T15:52:30.232Z,36.50
2018-09-12T15:54:39.763Z,36.50
2018-09-12T15:56:50.936Z,36.60
2018-09-12T15:59:07.281Z,36.50
2018-09-12T16:01:37.977Z,36.30
2018-09-12T16:03:54.007Z,36.30
2018-09-12T16:05:58.936Z,36.20
2018-09-12T16:08:40.275Z,36.20
2018-09-12T16:11:32.929Z,36.10
2018-09-12T16:13:47.057Z,36.00
2018-09-12T16:16:17.248Z,36.00
2018-09-12T16:18:30.261Z,36.00
2018-09-12T16:20:40.755Z,36.10
2018-09-12T16:25:30.376Z,36.00
2018-09-12T16:27:41.737Z,36.00
2018-09-12T16:29:55.839Z,36.00
2018-09-12T16:32:15.125Z,35.90
2018-09-12T16:34:32.099Z,35.80
2018-09-12T16:36:42.227Z,35.80
2018-09-12T16:39:06.720Z,35.70
2018-09-12T16:41:24.543Z,35.80
2018-09-12T16:43:32.733Z,35.60
2018-09-12T16:46:12.300Z,35.30
2018-09-12T16:48:28.368Z,35.40
2018-09-12T16:50:41.052Z,35.30
2018-09-12T16:52:54.847Z,34.90
2018-09-12T16:55:15.271Z,34.50
2018-09-12T16:57:30.010Z,33.90
2018-09-12T16:59:43.929Z,33.40
2018-09-12T17:02:01.403Z,33.10
2018-09-12T17:04:06.303Z,32.80
2018-09-12T17:06:16.235Z,32.40
2018-09-12T17:08:22.022Z,32.30
2018-09-12T17:10:33.417Z,32.10
2018-09-12T17:12:43.104Z,32.00
2018-09-12T17:14:53.144Z,31.80
2018-09-12T17:17:18.104Z,31.70
2018-09-12T17:19:27.254Z,31.60
2018-09-12T17:21:46.577Z,31.40
2018-09-12T17:23:56.542Z,31.30
2018-09-12T17:26:02.846Z,31.20
2018-09-12T17:28:12.350Z,31.10
2018-09-12T17:30:32.570Z,31.10
2018-09-12T17:32:40.094Z,30.90
2018-09-12T17:35:00.744Z,30.80
2018-09-12T17:37:14.268Z,30.70
2018-09-12T17:39:40.997Z,30.60
2018-09-12T17:41:53.090Z,30.50
2018-09-12T17:44:09.385Z,30.50
2018-09-12T17:46:31.376Z,30.40
2018-09-12T17:48:48.302Z,30.40
2018-09-12T17:51:03.348Z,30.30
2018-09-12T17:53:15.176Z,30.10
2018-09-12T17:55:30.655Z,29.80
2018-09-12T17:57:41.689Z,29.70
2018-09-12T17:59:49.602Z,29.60
2018-09-12T18:01:55.184Z,29.40
2018-09-12T18:04:05.906Z,29.20
2018-09-12T18:06:15.162Z,29.20
2018-09-12T18:08:35.808Z,29.30
2018-09-12T18:10:41.634Z,29.00
2018-09-12T18:12:51.790Z,28.70
2018-09-12T18:14:57.352Z,28.50
2018-09-12T18:19:59.299Z,28.30
2018-09-12T18:22:08.550Z,28.20
2018-09-12T18:24:16.539Z,27.80
2018-09-12T18:26:37.889Z,27.50
2018-09-12T18:28:49.332Z,27.40
2018-09-12T18:31:07.553Z,27.40
2018-09-12T18:33:44.402Z,27.40
2018-09-12T18:36:00.537Z,27.20
2018-09-12T18:41:31.088Z,27.10
2018-09-12T18:43:50.489Z,26.90
2018-09-12T18:46:12.406Z,26.90
2018-09-12T18:48:32.063Z,26.80
2018-09-12T18:53:31.279Z,26.50
2018-09-12T18:55:47.094Z,26.60
2018-09-12T18:58:12.405Z,26.70
2018-09-12T19:00:32.341Z,26.70
2018-09-12T19:02:47.892Z,26.60
2018-09-12T19:05:06.886Z,26.40
2018-09-12T19:07:17.547Z,26.40
2018-09-12T19:09:30.465Z,26.50
2018-09-12T19:11:39.231Z,26.70
2018-09-12T19:13:49.645Z,26.70
2018-09-12T19:15:57.981Z,26.80
2018-09-12T19:18:16.347Z,26.50
2018-09-12T19:20:26.482Z,26.50
2018-09-12T19:22:32.680Z,26.60
2018-09-12T19:24:53.651Z,26.70
2018-09-12T19:27:16.123Z,26.60
2018-09-12T19:29:33.908Z,26.50
2018-09-12T19:31:54.428Z,26.30
2018-09-12T19:34:12.048Z,26.20
2018-09-12T19:37:01.917Z,25.90
2018-09-12T19:39:56.896Z,25.80
2018-09-12T19:42:02.672Z,25.80
2018-09-12T19:44:07.884Z,25.80
2018-09-12T19:46:13.679Z,25.60
2018-09-12T19:48:17.906Z,25.40
2018-09-12T19:50:22.979Z,25.40
2018-09-12T19:52:31.113Z,25.30
2018-09-12T19:54:40.583Z,25.20
2018-09-12T19:56:51.703Z,25.20
2018-09-12T19:58:59.747Z,25.00
2018-09-12T20:01:05.160Z,25.00
2018-09-12T20:03:12.114Z,25.10
2018-09-12T20:05:19.978Z,25.00
2018-09-12T20:07:31.295Z,24.90
2018-09-12T20:09:35.338Z,24.90
2018-09-12T20:11:40.677Z,24.90
2018-09-12T20:13:46.303Z,24.90
2018-09-12T20:15:54.432Z,24.90
2018-09-12T20:18:00.082Z,24.70
2018-09-12T20:20:07.647Z,24.70
2018-09-12T20:22:12.667Z,24.60
2018-09-12T20:24:17.233Z,24.40
2018-09-12T20:26:27.208Z,24.40
2018-09-12T20:28:38.333Z,24.30
2018-09-12T20:30:44.101Z,24.20
2018-09-12T20:32:52.136Z,24.10
2018-09-12T20:34:57.483Z,24.00
2018-09-12T20:37:06.451Z,23.90
2018-09-12T20:39:13.710Z,23.70
2018-09-12T20:41:18.952Z,23.60
2018-09-12T20:43:23.606Z,23.50
2018-09-12T20:45:30.437Z,23.40
2018-09-12T20:47:37.682Z,23.30
2018-09-12T20:49:43.977Z,23.30
2018-09-12T20:51:48.093Z,23.20
2018-09-12T20:53:58.637Z,23.00
2018-09-12T20:56:07.387Z,23.00
2018-09-12T20:58:11.687Z,22.80
2018-09-12T21:00:16.237Z,22.80
2018-09-12T21:02:21.783Z,22.80
2018-09-12T21:04:27.297Z,22.70
2018-09-12T21:06:36.700Z,22.70
2018-09-12T21:08:40.934Z,22.70
2018-09-12T21:10:47.688Z,22.60
2018-09-12T21:12:54.213Z,22.50
2018-09-12T21:14:58.254Z,22.40
2018-09-12T21:17:03.773Z,22.50
2018-09-12T21:19:08.340Z,22.50
2018-09-12T21:21:12.328Z,22.40
2018-09-12T21:23:22.063Z,22.30
2018-09-12T21:25:27.715Z,22.30
2018-09-12T21:27:31.911Z,22.30
2018-09-12T21:29:36.938Z,22.20
2018-09-12T21:31:41.016Z,22.20
2018-09-12T21:33:45.107Z,22.20
2018-09-12T21:35:49.656Z,22.10
2018-09-12T21:37:56.677Z,22.10
2018-09-12T21:40:00.648Z,22.00
2018-09-12T21:42:07.318Z,21.90
2018-09-12T21:44:11.423Z,22.00
2018-09-12T21:46:19.548Z,21.90
2018-09-12T21:48:23.526Z,21.80
2018-09-12T21:50:27.799Z,21.80
2018-09-12T21:52:31.856Z,21.80
2018-09-12T21:54:38.462Z,21.60
2018-09-12T21:56:45.263Z,21.60
2018-09-12T21:58:50.404Z,21.50
2018-09-12T22:00:54.747Z,21.50
2018-09-12T22:02:59.626Z,21.50
2018-09-12T22:05:04.237Z,21.50
2018-09-12T22:07:10.365Z,21.40
2018-09-12T22:09:15.096Z,21.30
2018-09-12T22:11:19.691Z,21.30
2018-09-12T22:13:24.699Z,21.10
2018-09-12T22:15:28.755Z,21.10
2018-09-12T22:17:33.451Z,21.00
2018-09-12T22:19:38.788Z,21.00
2018-09-12T22:21:42.757Z,21.00
2018-09-12T22:23:47.349Z,20.90
2018-09-12T22:25:51.628Z,20.80
2018-09-12T22:27:56.299Z,20.80
2018-09-12T22:30:00.890Z,20.80
2018-09-12T22:32:07.128Z,20.80
2018-09-12T22:34:11.091Z,20.70
2018-09-12T22:36:15.287Z,20.70
2018-09-12T22:38:20.616Z,20.50
2018-09-12T22:40:25.267Z,20.50
2018-09-12T22:42:29.330Z,20.40
2018-09-12T22:44:33.578Z,20.40
2018-09-12T22:46:37.571Z,20.30
2018-09-12T22:48:41.588Z,20.30
2018-09-12T22:50:47.075Z,20.30
2018-09-12T22:52:54.643Z,20.30
2018-09-12T22:54:58.890Z,20.20
2018-09-12T22:57:04.264Z,20.20
2018-09-12T22:59:10.521Z,20.10
2018-09-12T23:01:17.046Z,20.10
2018-09-12T23:03:21.859Z,20.10
2018-09-12T23:05:27.799Z,20.00
2018-09-12T23:07:32.351Z,20.00
2018-09-12T23:09:36.727Z,20.00
2018-09-12T23:11:40.724Z,20.00
2018-09-12T23:13:46.372Z,20.00
2018-09-12T23:15:52.903Z,19.90
2018-09-12T23:17:57.315Z,20.00
2018-09-12T23:20:02.883Z,20.00
2018-09-12T23:22:09.201Z,20.10
2018-09-12T23:24:15.447Z,20.00
2018-09-12T23:26:20.420Z,20.00
2018-09-12T23:28:25.164Z,19.90
2018-09-12T23:30:29.211Z,19.80
2018-09-12T23:32:37.666Z,19.80
2018-09-12T23:34:42.028Z,19.80
2018-09-12T23:36:45.979Z,19.70
2018-09-12T23:38:50.051Z,19.70
2018-09-12T23:40:55.379Z,19.70
2018-09-12T23:42:59.899Z,19.60
2018-09-12T23:45:04.531Z,19.50
2018-09-12T23:47:09.813Z,19.50
2018-09-12T23:49:13.838Z,19.50
2018-09-12T23:51:18.048Z,19.40
2018-09-12T23:53:22.963Z,19.40
2018-09-12T23:55:29.054Z,19.30
2018-09-12T23:57:33.000Z,19.20
2018-09-12T23:59:37.325Z,19.20
